Warriormine, West Virginia
Current Conditions -  °F | °C
As of 10:35 PM on Saturday 25 Oct 2014 (Local Time) from KJFZ Reporting Station
Scattered Clouds Scattered Clouds  
Wind Chill: 59°   Ceiling: Unl
Heat Index: 59°   Visibility: 10mi
Dew Point: 24°   Wind: 10mph
Humidity: 26%   Direction: 260°W
Pressure: 30"   Gusts: NA
Location:  37.29°N, 81.7°W
Report Text: KJFZ 260235Z AUTO 26009KT 10SM SCT020 15/M05 A3000 RMK AO2 T01501047
Loading
Personal Weather Stations






























Interactive Weather Map
Tropical Storm Tracking
New forecast layout! Learn more

10-Day Weather Forecast

Advertisements
Track Severe Weather on mobile